sensor_id;sensor_type;location;lat;lon;timestamp;P1;durP1;ratioP1;P2;durP2;ratioP2
2542;SDS011;1116;51.502;7.414;2023-02-14T00:00:55;9.05;;;7.85;;
2542;SDS011;1116;51.502;7.414;2023-02-14T00:03:26;9.10;;;7.33;;
2542;SDS011;1116;51.502;7.414;2023-02-14T00:06:08;10.57;;;8.00;;
2542;SDS011;1116;51.502;7.414;2023-02-14T00:08:40;11.13;;;8.65;;
2542;SDS011;1116;51.502;7.414;2023-02-14T00:11:12;10.57;;;8.63;;
2542;SDS011;1116;51.502;7.414;2023-02-14T00:13:46;9.10;;;8.20;;
2542;SDS011;1116;51.502;7.414;2023-02-14T00:16:29;10.27;;;8.05;;
2542;SDS011;1116;51.502;7.414;2023-02-14T00:19:00;10.20;;;8.10;;
2542;SDS011;1116;51.502;7.414;2023-02-14T00:21:37;11.70;;;8.47;;
2542;SDS011;1116;51.502;7.414;2023-02-14T00:24:08;10.27;;;7.93;;
2542;SDS011;1116;51.502;7.414;2023-02-14T00:26:48;10.63;;;7.60;;
2542;SDS011;1116;51.502;7.414;2023-02-14T00:29:23;9.97;;;7.97;;
2542;SDS011;1116;51.502;7.414;2023-02-14T00:31:55;12.75;;;8.88;;
2542;SDS011;1116;51.502;7.414;2023-02-14T00:34:28;8.30;;;7.40;;
2542;SDS011;1116;51.502;7.414;2023-02-14T00:36:59;9.93;;;8.30;;
2542;SDS011;1116;51.502;7.414;2023-02-14T00:39:30;10.65;;;8.02;;
2542;SDS011;1116;51.502;7.414;2023-02-14T00:42:01;10.20;;;8.02;;
2542;SDS011;1116;51.502;7.414;2023-02-14T00:44:35;9.20;;;7.95;;
2542;SDS011;1116;51.502;7.414;2023-02-14T00:47:24;9.82;;;7.90;;
2542;SDS011;1116;51.502;7.414;2023-02-14T00:49:55;10.25;;;7.90;;
2542;SDS011;1116;51.502;7.414;2023-02-14T00:52:29;9.93;;;8.15;;
2542;SDS011;1116;51.502;7.414;2023-02-14T00:55:00;11.45;;;8.45;;
2542;SDS011;1116;51.502;7.414;2023-02-14T00:57:30;10.02;;;8.13;;
2542;SDS011;1116;51.502;7.414;2023-02-14T01:00:19;10.18;;;7.80;;
2542;SDS011;1116;51.502;7.414;2023-02-14T01:08:25;9.65;;;8.13;;
2542;SDS011;1116;51.502;7.414;2023-02-14T01:11:05;9.75;;;8.07;;
2542;SDS011;1116;51.502;7.414;2023-02-14T01:13:37;10.57;;;8.20;;
2542;SDS011;1116;51.502;7.414;2023-02-14T01:16:11;8.57;;;7.47;;
2542;SDS011;1116;51.502;7.414;2023-02-14T01:18:44;10.40;;;8.50;;
2542;SDS011;1116;51.502;7.414;2023-02-14T01:21:16;8.48;;;7.47;;
2542;SDS011;1116;51.502;7.414;2023-02-14T01:23:49;8.63;;;7.68;;
2542;SDS011;1116;51.502;7.414;2023-02-14T01:26:23;9.75;;;7.57;;
2542;SDS011;1116;51.502;7.414;2023-02-14T01:28:55;10.45;;;7.70;;
2542;SDS011;1116;51.502;7.414;2023-02-14T01:31:30;9.38;;;7.63;;
2542;SDS011;1116;51.502;7.414;2023-02-14T01:34:02;9.77;;;7.60;;
2542;SDS011;1116;51.502;7.414;2023-02-14T01:36:34;10.00;;;7.55;;
2542;SDS011;1116;51.502;7.414;2023-02-14T01:39:07;9.77;;;7.38;;
2542;SDS011;1116;51.502;7.414;2023-02-14T01:41:42;11.77;;;8.10;;
2542;SDS011;1116;51.502;7.414;2023-02-14T01:47:20;13.73;;;7.77;;
2542;SDS011;1116;51.502;7.414;2023-02-14T01:49:53;9.90;;;7.60;;
2542;SDS011;1116;51.502;7.414;2023-02-14T01:52:28;9.93;;;7.80;;
2542;SDS011;1116;51.502;7.414;2023-02-14T01:55:03;9.60;;;7.80;;
2542;SDS011;1116;51.502;7.414;2023-02-14T01:57:39;8.75;;;7.30;;
2542;SDS011;1116;51.502;7.414;2023-02-14T02:00:12;8.77;;;7.10;;
2542;SDS011;1116;51.502;7.414;2023-02-14T02:03:00;10.10;;;7.45;;
2542;SDS011;1116;51.502;7.414;2023-02-14T02:05:40;7.65;;;6.88;;
2542;SDS011;1116;51.502;7.414;2023-02-14T02:08:17;11.50;;;7.60;;
2542;SDS011;1116;51.502;7.414;2023-02-14T02:10:49;9.90;;;7.57;;
2542;SDS011;1116;51.502;7.414;2023-02-14T02:13:20;9.30;;;7.57;;
2542;SDS011;1116;51.502;7.414;2023-02-14T02:15:55;9.40;;;7.20;;
2542;SDS011;1116;51.502;7.414;2023-02-14T02:18:41;10.50;;;7.70;;
2542;SDS011;1116;51.502;7.414;2023-02-14T02:24:33;10.35;;;7.80;;
2542;SDS011;1116;51.502;7.414;2023-02-14T02:27:23;11.02;;;7.65;;
2542;SDS011;1116;51.502;7.414;2023-02-14T02:33:23;12.13;;;7.68;;
2542;SDS011;1116;51.502;7.414;2023-02-14T02:36:29;11.52;;;9.00;;
2542;SDS011;1116;51.502;7.414;2023-02-14T02:39:15;13.13;;;9.82;;
2542;SDS011;1116;51.502;7.414;2023-02-14T02:41:58;13.13;;;10.15;;
2542;SDS011;1116;51.502;7.414;2023-02-14T02:44:39;10.75;;;8.95;;
2542;SDS011;1116;51.502;7.414;2023-02-14T02:47:20;15.30;;;9.18;;
2542;SDS011;1116;51.502;7.414;2023-02-14T02:49:57;14.57;;;9.73;;
2542;SDS011;1116;51.502;7.414;2023-02-14T02:52:54;11.73;;;9.63;;
2542;SDS011;1116;51.502;7.414;2023-02-14T02:55:41;12.23;;;8.70;;
2542;SDS011;1116;51.502;7.414;2023-02-14T02:58:28;9.88;;;7.70;;
2542;SDS011;1116;51.502;7.414;2023-02-14T03:01:06;13.18;;;8.30;;
2542;SDS011;1116;51.502;7.414;2023-02-14T03:03:39;11.00;;;8.48;;
2542;SDS011;1116;51.502;7.414;2023-02-14T03:06:28;11.57;;;8.75;;
2542;SDS011;1116;51.502;7.414;2023-02-14T03:09:11;11.13;;;8.00;;
2542;SDS011;1116;51.502;7.414;2023-02-14T03:12:11;11.80;;;8.83;;
2542;SDS011;1116;51.502;7.414;2023-02-14T03:15:13;12.60;;;8.83;;
2542;SDS011;1116;51.502;7.414;2023-02-14T03:17:54;14.00;;;8.35;;
2542;SDS011;1116;51.502;7.414;2023-02-14T03:20:33;13.00;;;9.57;;
2542;SDS011;1116;51.502;7.414;2023-02-14T03:23:12;11.98;;;8.88;;
2542;SDS011;1116;51.502;7.414;2023-02-14T03:25:52;12.75;;;9.70;;
2542;SDS011;1116;51.502;7.414;2023-02-14T03:28:32;12.82;;;9.43;;
2542;SDS011;1116;51.502;7.414;2023-02-14T03:31:12;12.70;;;8.53;;
2542;SDS011;1116;51.502;7.414;2023-02-14T03:33:50;11.20;;;8.57;;
2542;SDS011;1116;51.502;7.414;2023-02-14T03:36:33;11.23;;;8.60;;
2542;SDS011;1116;51.502;7.414;2023-02-14T03:39:09;11.70;;;8.98;;
2542;SDS011;1116;51.502;7.414;2023-02-14T03:41:50;12.17;;;8.97;;
2542;SDS011;1116;51.502;7.414;2023-02-14T03:44:32;12.98;;;9.15;;
2542;SDS011;1116;51.502;7.414;2023-02-14T03:47:06;11.50;;;8.97;;
2542;SDS011;1116;51.502;7.414;2023-02-14T03:49:41;13.48;;;9.15;;
2542;SDS011;1116;51.502;7.414;2023-02-14T03:52:15;14.55;;;11.45;;
2542;SDS011;1116;51.502;7.414;2023-02-14T03:54:49;12.50;;;9.13;;
2542;SDS011;1116;51.502;7.414;2023-02-14T03:57:29;13.50;;;9.35;;
2542;SDS011;1116;51.502;7.414;2023-02-14T04:00:05;14.05;;;8.98;;
2542;SDS011;1116;51.502;7.414;2023-02-14T04:02:38;12.77;;;9.30;;
2542;SDS011;1116;51.502;7.414;2023-02-14T04:05:14;11.85;;;8.73;;
2542;SDS011;1116;51.502;7.414;2023-02-14T04:07:49;13.83;;;9.70;;
2542;SDS011;1116;51.502;7.414;2023-02-14T04:10:21;13.07;;;8.75;;
2542;SDS011;1116;51.502;7.414;2023-02-14T04:12:56;13.82;;;8.68;;
2542;SDS011;1116;51.502;7.414;2023-02-14T04:15:27;11.77;;;9.38;;
2542;SDS011;1116;51.502;7.414;2023-02-14T04:18:01;11.20;;;8.50;;
2542;SDS011;1116;51.502;7.414;2023-02-14T04:20:56;13.13;;;9.90;;
2542;SDS011;1116;51.502;7.414;2023-02-14T04:23:27;12.32;;;9.10;;
2542;SDS011;1116;51.502;7.414;2023-02-14T04:25:58;10.82;;;8.60;;
2542;SDS011;1116;51.502;7.414;2023-02-14T04:28:32;10.43;;;8.38;;
2542;SDS011;1116;51.502;7.414;2023-02-14T04:31:04;11.55;;;8.35;;
2542;SDS011;1116;51.502;7.414;2023-02-14T04:33:37;12.82;;;9.35;;
2542;SDS011;1116;51.502;7.414;2023-02-14T04:36:08;11.75;;;8.93;;
2542;SDS011;1116;51.502;7.414;2023-02-14T04:38:39;11.60;;;9.15;;
2542;SDS011;1116;51.502;7.414;2023-02-14T04:41:13;10.73;;;8.60;;
2542;SDS011;1116;51.502;7.414;2023-02-14T04:43:46;11.90;;;9.50;;
2542;SDS011;1116;51.502;7.414;2023-02-14T04:46:17;13.00;;;9.00;;
2542;SDS011;1116;51.502;7.414;2023-02-14T04:48:48;13.40;;;10.07;;
2542;SDS011;1116;51.502;7.414;2023-02-14T04:51:19;14.60;;;9.45;;
2542;SDS011;1116;51.502;7.414;2023-02-14T04:53:51;13.77;;;9.93;;
2542;SDS011;1116;51.502;7.414;2023-02-14T04:56:23;11.15;;;9.00;;
2542;SDS011;1116;51.502;7.414;2023-02-14T04:58:56;11.63;;;8.70;;
2542;SDS011;1116;51.502;7.414;2023-02-14T05:01:27;12.45;;;8.80;;
2542;SDS011;1116;51.502;7.414;2023-02-14T05:03:58;11.95;;;8.77;;
2542;SDS011;1116;51.502;7.414;2023-02-14T05:06:29;12.38;;;9.23;;
2542;SDS011;1116;51.502;7.414;2023-02-14T05:09:00;12.60;;;9.35;;
2542;SDS011;1116;51.502;7.414;2023-02-14T05:11:34;14.18;;;10.27;;
2542;SDS011;1116;51.502;7.414;2023-02-14T05:14:07;13.35;;;9.45;;
2542;SDS011;1116;51.502;7.414;2023-02-14T05:16:40;14.77;;;9.70;;
2542;SDS011;1116;51.502;7.414;2023-02-14T05:19:11;11.02;;;8.73;;
2542;SDS011;1116;51.502;7.414;2023-02-14T05:21:41;16.15;;;9.40;;
2542;SDS011;1116;51.502;7.414;2023-02-14T05:24:13;16.23;;;9.35;;
2542;SDS011;1116;51.502;7.414;2023-02-14T05:26:44;16.88;;;10.02;;
2542;SDS011;1116;51.502;7.414;2023-02-14T05:29:18;12.13;;;9.20;;
2542;SDS011;1116;51.502;7.414;2023-02-14T05:31:51;17.42;;;8.60;;
2542;SDS011;1116;51.502;7.414;2023-02-14T05:34:22;12.80;;;9.38;;
2542;SDS011;1116;51.502;7.414;2023-02-14T05:36:55;12.25;;;9.93;;
2542;SDS011;1116;51.502;7.414;2023-02-14T05:39:26;14.55;;;10.27;;
2542;SDS011;1116;51.502;7.414;2023-02-14T05:41:57;15.30;;;10.20;;
2542;SDS011;1116;51.502;7.414;2023-02-14T05:44:30;16.13;;;10.35;;
2542;SDS011;1116;51.502;7.414;2023-02-14T05:47:01;14.82;;;10.18;;
2542;SDS011;1116;51.502;7.414;2023-02-14T05:49:33;13.50;;;10.00;;
2542;SDS011;1116;51.502;7.414;2023-02-14T05:52:04;15.00;;;10.02;;
2542;SDS011;1116;51.502;7.414;2023-02-14T05:54:35;13.43;;;9.95;;
2542;SDS011;1116;51.502;7.414;2023-02-14T05:57:06;15.27;;;11.10;;
2542;SDS011;1116;51.502;7.414;2023-02-14T05:59:40;14.32;;;9.40;;
2542;SDS011;1116;51.502;7.414;2023-02-14T06:02:11;11.82;;;9.50;;
2542;SDS011;1116;51.502;7.414;2023-02-14T06:04:42;13.88;;;10.57;;
2542;SDS011;1116;51.502;7.414;2023-02-14T06:07:13;13.27;;;9.95;;
2542;SDS011;1116;51.502;7.414;2023-02-14T06:09:46;16.45;;;11.00;;
2542;SDS011;1116;51.502;7.414;2023-02-14T06:12:17;14.00;;;10.60;;
2542;SDS011;1116;51.502;7.414;2023-02-14T06:14:51;18.40;;;10.50;;
2542;SDS011;1116;51.502;7.414;2023-02-14T06:17:22;19.10;;;11.20;;
2542;SDS011;1116;51.502;7.414;2023-02-14T06:19:52;17.40;;;10.95;;
2542;SDS011;1116;51.502;7.414;2023-02-14T06:22:23;15.00;;;10.55;;
2542;SDS011;1116;51.502;7.414;2023-02-14T06:24:57;14.25;;;10.88;;
2542;SDS011;1116;51.502;7.414;2023-02-14T06:27:28;15.82;;;11.38;;
2542;SDS011;1116;51.502;7.414;2023-02-14T06:30:05;20.55;;;11.90;;
2542;SDS011;1116;51.502;7.414;2023-02-14T06:32:40;15.13;;;11.27;;
2542;SDS011;1116;51.502;7.414;2023-02-14T06:35:11;14.43;;;10.13;;
2542;SDS011;1116;51.502;7.414;2023-02-14T06:37:43;17.92;;;12.52;;
2542;SDS011;1116;51.502;7.414;2023-02-14T06:40:14;16.65;;;11.00;;
2542;SDS011;1116;51.502;7.414;2023-02-14T06:42:46;16.52;;;11.93;;
2542;SDS011;1116;51.502;7.414;2023-02-14T06:45:20;19.13;;;13.40;;
2542;SDS011;1116;51.502;7.414;2023-02-14T06:47:54;20.25;;;12.20;;
2542;SDS011;1116;51.502;7.414;2023-02-14T06:50:26;19.13;;;12.55;;
2542;SDS011;1116;51.502;7.414;2023-02-14T06:52:57;20.15;;;12.10;;
2542;SDS011;1116;51.502;7.414;2023-02-14T06:55:27;16.13;;;11.82;;
2542;SDS011;1116;51.502;7.414;2023-02-14T06:58:01;19.83;;;12.70;;
2542;SDS011;1116;51.502;7.414;2023-02-14T07:00:37;19.25;;;13.45;;
2542;SDS011;1116;51.502;7.414;2023-02-14T07:03:10;20.77;;;13.27;;
2542;SDS011;1116;51.502;7.414;2023-02-14T07:05:41;22.88;;;12.70;;
2542;SDS011;1116;51.502;7.414;2023-02-14T07:08:13;19.73;;;13.13;;
2542;SDS011;1116;51.502;7.414;2023-02-14T07:10:44;17.30;;;11.98;;
2542;SDS011;1116;51.502;7.414;2023-02-14T07:13:14;19.75;;;13.18;;
2542;SDS011;1116;51.502;7.414;2023-02-14T07:15:48;21.92;;;13.77;;
2542;SDS011;1116;51.502;7.414;2023-02-14T07:18:19;20.17;;;13.90;;
2542;SDS011;1116;51.502;7.414;2023-02-14T07:20:50;19.63;;;12.68;;
2542;SDS011;1116;51.502;7.414;2023-02-14T07:23:21;19.95;;;12.93;;
2542;SDS011;1116;51.502;7.414;2023-02-14T07:25:53;20.13;;;12.82;;
2542;SDS011;1116;51.502;7.414;2023-02-14T07:28:24;18.33;;;12.90;;
2542;SDS011;1116;51.502;7.414;2023-02-14T07:31:00;21.73;;;13.27;;
2542;SDS011;1116;51.502;7.414;2023-02-14T07:33:35;19.20;;;12.90;;
2542;SDS011;1116;51.502;7.414;2023-02-14T07:36:07;21.90;;;14.23;;
2542;SDS011;1116;51.502;7.414;2023-02-14T07:38:38;23.58;;;14.95;;
2542;SDS011;1116;51.502;7.414;2023-02-14T07:41:09;27.50;;;14.75;;
2542;SDS011;1116;51.502;7.414;2023-02-14T07:43:40;21.80;;;14.55;;
2542;SDS011;1116;51.502;7.414;2023-02-14T07:46:19;20.55;;;14.20;;
2542;SDS011;1116;51.502;7.414;2023-02-14T07:48:49;22.10;;;13.43;;
2542;SDS011;1116;51.502;7.414;2023-02-14T07:51:21;22.92;;;13.32;;
2542;SDS011;1116;51.502;7.414;2023-02-14T07:53:51;18.63;;;13.50;;
2542;SDS011;1116;51.502;7.414;2023-02-14T07:56:22;19.15;;;13.10;;
2542;SDS011;1116;51.502;7.414;2023-02-14T07:58:53;27.15;;;14.50;;
2542;SDS011;1116;51.502;7.414;2023-02-14T08:01:26;24.58;;;14.35;;
2542;SDS011;1116;51.502;7.414;2023-02-14T08:04:00;27.38;;;14.90;;
2542;SDS011;1116;51.502;7.414;2023-02-14T08:06:31;19.98;;;13.32;;
2542;SDS011;1116;51.502;7.414;2023-02-14T08:09:02;21.50;;;14.43;;
2542;SDS011;1116;51.502;7.414;2023-02-14T08:11:33;26.05;;;14.75;;
2542;SDS011;1116;51.502;7.414;2023-02-14T08:14:16;23.92;;;14.73;;
2542;SDS011;1116;51.502;7.414;2023-02-14T08:16:50;21.83;;;15.05;;
2542;SDS011;1116;51.502;7.414;2023-02-14T08:19:22;29.75;;;15.65;;
2542;SDS011;1116;51.502;7.414;2023-02-14T08:21:53;18.13;;;13.50;;
2542;SDS011;1116;51.502;7.414;2023-02-14T08:24:25;30.60;;;15.27;;
2542;SDS011;1116;51.502;7.414;2023-02-14T08:26:56;27.42;;;15.73;;
2542;SDS011;1116;51.502;7.414;2023-02-14T08:29:27;24.42;;;15.07;;
2542;SDS011;1116;51.502;7.414;2023-02-14T08:32:03;23.55;;;13.93;;
2542;SDS011;1116;51.502;7.414;2023-02-14T08:34:35;20.92;;;15.60;;
2542;SDS011;1116;51.502;7.414;2023-02-14T08:37:05;23.08;;;15.18;;
2542;SDS011;1116;51.502;7.414;2023-02-14T08:39:37;25.83;;;15.27;;
2542;SDS011;1116;51.502;7.414;2023-02-14T08:42:08;22.23;;;16.80;;
2542;SDS011;1116;51.502;7.414;2023-02-14T08:44:39;21.03;;;13.70;;
2542;SDS011;1116;51.502;7.414;2023-02-14T08:47:18;21.10;;;15.07;;
2542;SDS011;1116;51.502;7.414;2023-02-14T08:49:55;18.10;;;13.10;;
2542;SDS011;1116;51.502;7.414;2023-02-14T08:52:26;19.47;;;13.63;;
2542;SDS011;1116;51.502;7.414;2023-02-14T08:55:00;19.43;;;13.10;;
2542;SDS011;1116;51.502;7.414;2023-02-14T08:57:31;21.67;;;14.00;;
2542;SDS011;1116;51.502;7.414;2023-02-14T09:00:03;18.37;;;14.30;;
2542;SDS011;1116;51.502;7.414;2023-02-14T09:02:37;24.40;;;15.13;;
2542;SDS011;1116;51.502;7.414;2023-02-14T09:05:11;21.13;;;15.20;;
2542;SDS011;1116;51.502;7.414;2023-02-14T09:07:44;16.10;;;13.07;;
2542;SDS011;1116;51.502;7.414;2023-02-14T09:10:15;20.77;;;13.63;;
2542;SDS011;1116;51.502;7.414;2023-02-14T09:12:47;18.27;;;13.90;;
2542;SDS011;1116;51.502;7.414;2023-02-14T09:15:21;19.90;;;13.40;;
2542;SDS011;1116;51.502;7.414;2023-02-14T09:17:54;18.07;;;13.70;;
2542;SDS011;1116;51.502;7.414;2023-02-14T09:20:26;16.20;;;12.43;;
2542;SDS011;1116;51.502;7.414;2023-02-14T09:22:57;17.90;;;12.53;;
2542;SDS011;1116;51.502;7.414;2023-02-14T09:25:30;16.47;;;13.00;;
2542;SDS011;1116;51.502;7.414;2023-02-14T09:28:01;20.30;;;13.20;;
2542;SDS011;1116;51.502;7.414;2023-02-14T09:30:32;17.30;;;11.77;;
2542;SDS011;1116;51.502;7.414;2023-02-14T09:33:09;20.70;;;14.50;;
2542;SDS011;1116;51.502;7.414;2023-02-14T09:35:40;19.07;;;13.20;;
2542;SDS011;1116;51.502;7.414;2023-02-14T09:38:28;17.87;;;13.87;;
2542;SDS011;1116;51.502;7.414;2023-02-14T09:40:59;21.67;;;12.73;;
2542;SDS011;1116;51.502;7.414;2023-02-14T09:43:35;16.80;;;12.53;;
2542;SDS011;1116;51.502;7.414;2023-02-14T09:46:14;20.03;;;13.07;;
2542;SDS011;1116;51.502;7.414;2023-02-14T09:48:48;19.80;;;13.93;;
2542;SDS011;1116;51.502;7.414;2023-02-14T09:51:21;15.67;;;12.40;;
2542;SDS011;1116;51.502;7.414;2023-02-14T09:53:55;17.37;;;12.30;;
2542;SDS011;1116;51.502;7.414;2023-02-14T09:56:31;19.00;;;12.73;;
2542;SDS011;1116;51.502;7.414;2023-02-14T09:59:23;14.43;;;10.93;;
2542;SDS011;1116;51.502;7.414;2023-02-14T10:01:58;13.97;;;10.30;;
2542;SDS011;1116;51.502;7.414;2023-02-14T10:04:41;17.43;;;10.80;;
2542;SDS011;1116;51.502;7.414;2023-02-14T10:07:21;13.50;;;10.30;;
2542;SDS011;1116;51.502;7.414;2023-02-14T10:10:00;13.80;;;9.17;;
2542;SDS011;1116;51.502;7.414;2023-02-14T10:12:37;13.17;;;9.47;;
2542;SDS011;1116;51.502;7.414;2023-02-14T10:15:13;12.83;;;9.40;;
2542;SDS011;1116;51.502;7.414;2023-02-14T10:17:48;10.63;;;8.83;;
2542;SDS011;1116;51.502;7.414;2023-02-14T10:20:28;13.50;;;10.23;;
2542;SDS011;1116;51.502;7.414;2023-02-14T10:23:03;15.53;;;9.47;;
2542;SDS011;1116;51.502;7.414;2023-02-14T10:25:41;12.77;;;10.30;;
2542;SDS011;1116;51.502;7.414;2023-02-14T10:28:17;9.90;;;8.20;;
2542;SDS011;1116;51.502;7.414;2023-02-14T10:31:06;12.03;;;8.00;;
2542;SDS011;1116;51.502;7.414;2023-02-14T10:33:50;11.10;;;9.00;;
2542;SDS011;1116;51.502;7.414;2023-02-14T10:36:39;12.27;;;8.40;;
2542;SDS011;1116;51.502;7.414;2023-02-14T10:39:30;10.50;;;8.27;;
2542;SDS011;1116;51.502;7.414;2023-02-14T10:42:19;9.03;;;8.10;;
2542;SDS011;1116;51.502;7.414;2023-02-14T10:45:00;9.93;;;8.20;;
2542;SDS011;1116;51.502;7.414;2023-02-14T10:47:45;11.50;;;8.30;;
2542;SDS011;1116;51.502;7.414;2023-02-14T10:50:23;9.23;;;8.07;;
2542;SDS011;1116;51.502;7.414;2023-02-14T10:53:05;8.60;;;6.83;;
2542;SDS011;1116;51.502;7.414;2023-02-14T10:55:46;10.60;;;7.40;;
2542;SDS011;1116;51.502;7.414;2023-02-14T10:58:21;9.90;;;8.57;;
2542;SDS011;1116;51.502;7.414;2023-02-14T11:00:57;14.30;;;10.80;;
2542;SDS011;1116;51.502;7.414;2023-02-14T11:03:31;13.23;;;10.30;;
2542;SDS011;1116;51.502;7.414;2023-02-14T11:06:04;13.43;;;10.33;;
2542;SDS011;1116;51.502;7.414;2023-02-14T11:08:39;12.90;;;10.00;;
2542;SDS011;1116;51.502;7.414;2023-02-14T11:11:13;11.47;;;9.23;;
2542;SDS011;1116;51.502;7.414;2023-02-14T11:13:47;12.70;;;9.50;;
2542;SDS011;1116;51.502;7.414;2023-02-14T11:16:27;14.90;;;11.13;;
2542;SDS011;1116;51.502;7.414;2023-02-14T11:19:13;21.67;;;11.93;;
2542;SDS011;1116;51.502;7.414;2023-02-14T11:21:50;14.03;;;10.67;;
2542;SDS011;1116;51.502;7.414;2023-02-14T11:24:31;13.47;;;11.10;;
2542;SDS011;1116;51.502;7.414;2023-02-14T11:27:13;14.37;;;10.33;;
2542;SDS011;1116;51.502;7.414;2023-02-14T11:29:47;14.20;;;8.60;;
2542;SDS011;1116;51.502;7.414;2023-02-14T11:32:23;10.50;;;8.90;;
2542;SDS011;1116;51.502;7.414;2023-02-14T11:34:58;12.20;;;8.63;;
2542;SDS011;1116;51.502;7.414;2023-02-14T11:37:31;11.70;;;8.20;;
2542;SDS011;1116;51.502;7.414;2023-02-14T11:40:22;14.63;;;8.60;;
2542;SDS011;1116;51.502;7.414;2023-02-14T11:45:49;10.23;;;8.43;;
2542;SDS011;1116;51.502;7.414;2023-02-14T11:48:37;12.60;;;8.93;;
2542;SDS011;1116;51.502;7.414;2023-02-14T11:51:10;12.10;;;9.30;;
2542;SDS011;1116;51.502;7.414;2023-02-14T11:53:43;11.33;;;8.80;;
2542;SDS011;1116;51.502;7.414;2023-02-14T11:56:19;12.07;;;8.27;;
2542;SDS011;1116;51.502;7.414;2023-02-14T11:58:52;12.00;;;8.77;;
2542;SDS011;1116;51.502;7.414;2023-02-14T12:01:27;11.00;;;8.50;;
2542;SDS011;1116;51.502;7.414;2023-02-14T12:04:11;8.50;;;6.33;;
2542;SDS011;1116;51.502;7.414;2023-02-14T12:06:45;7.23;;;6.13;;
2542;SDS011;1116;51.502;7.414;2023-02-14T12:09:23;6.50;;;5.60;;
2542;SDS011;1116;51.502;7.414;2023-02-14T12:12:01;6.20;;;5.60;;
2542;SDS011;1116;51.502;7.414;2023-02-14T12:14:34;6.60;;;5.73;;
2542;SDS011;1116;51.502;7.414;2023-02-14T12:17:06;10.70;;;6.30;;
2542;SDS011;1116;51.502;7.414;2023-02-14T12:19:48;7.80;;;6.10;;
2542;SDS011;1116;51.502;7.414;2023-02-14T12:22:23;6.97;;;5.90;;
2542;SDS011;1116;51.502;7.414;2023-02-14T12:25:00;6.20;;;5.60;;
2542;SDS011;1116;51.502;7.414;2023-02-14T12:27:41;5.87;;;5.13;;
2542;SDS011;1116;51.502;7.414;2023-02-14T12:30:17;6.33;;;5.20;;
2542;SDS011;1116;51.502;7.414;2023-02-14T12:32:50;6.17;;;5.43;;
2542;SDS011;1116;51.502;7.414;2023-02-14T12:35:28;6.00;;;5.40;;
2542;SDS011;1116;51.502;7.414;2023-02-14T12:38:14;5.60;;;5.00;;
2542;SDS011;1116;51.502;7.414;2023-02-14T12:43:49;6.80;;;5.53;;
2542;SDS011;1116;51.502;7.414;2023-02-14T12:52:21;5.20;;;4.70;;
2542;SDS011;1116;51.502;7.414;2023-02-14T12:55:21;5.83;;;5.00;;
2542;SDS011;1116;51.502;7.414;2023-02-14T12:58:11;5.13;;;4.63;;
2542;SDS011;1116;51.502;7.414;2023-02-14T13:00:57;5.10;;;4.40;;
2542;SDS011;1116;51.502;7.414;2023-02-14T13:03:43;6.83;;;4.80;;
2542;SDS011;1116;51.502;7.414;2023-02-14T13:06:26;6.60;;;4.80;;
2542;SDS011;1116;51.502;7.414;2023-02-14T13:09:04;6.67;;;4.87;;
2542;SDS011;1116;51.502;7.414;2023-02-14T13:11:49;6.97;;;5.13;;
2542;SDS011;1116;51.502;7.414;2023-02-14T13:14:34;5.40;;;4.87;;
2542;SDS011;1116;51.502;7.414;2023-02-14T13:17:16;4.70;;;4.30;;
2542;SDS011;1116;51.502;7.414;2023-02-14T13:19:56;5.03;;;4.53;;
2542;SDS011;1116;51.502;7.414;2023-02-14T13:22:33;9.33;;;5.27;;
2542;SDS011;1116;51.502;7.414;2023-02-14T13:25:11;6.87;;;4.67;;
2542;SDS011;1116;51.502;7.414;2023-02-14T13:27:48;5.20;;;4.23;;
2542;SDS011;1116;51.502;7.414;2023-02-14T13:30:23;5.00;;;4.40;;
2542;SDS011;1116;51.502;7.414;2023-02-14T13:33:02;5.43;;;4.43;;
2542;SDS011;1116;51.502;7.414;2023-02-14T13:35:37;6.00;;;4.87;;
2542;SDS011;1116;51.502;7.414;2023-02-14T13:38:10;6.53;;;4.50;;
2542;SDS011;1116;51.502;7.414;2023-02-14T13:40:44;5.07;;;4.03;;
2542;SDS011;1116;51.502;7.414;2023-02-14T13:46:19;6.63;;;4.30;;
2542;SDS011;1116;51.502;7.414;2023-02-14T13:48:58;7.73;;;4.07;;
2542;SDS011;1116;51.502;7.414;2023-02-14T13:51:42;4.63;;;4.13;;
2542;SDS011;1116;51.502;7.414;2023-02-14T13:54:21;7.13;;;5.20;;
2542;SDS011;1116;51.502;7.414;2023-02-14T13:57:00;6.10;;;4.47;;
2542;SDS011;1116;51.502;7.414;2023-02-14T13:59:33;9.87;;;4.97;;
2542;SDS011;1116;51.502;7.414;2023-02-14T14:05:03;5.90;;;4.77;;
2542;SDS011;1116;51.502;7.414;2023-02-14T14:08:17;8.87;;;5.60;;
2542;SDS011;1116;51.502;7.414;2023-02-14T14:11:12;8.13;;;5.80;;
2542;SDS011;1116;51.502;7.414;2023-02-14T14:14:25;8.73;;;5.23;;
2542;SDS011;1116;51.502;7.414;2023-02-14T14:17:17;9.77;;;5.97;;
2542;SDS011;1116;51.502;7.414;2023-02-14T14:19:52;6.33;;;5.00;;
2542;SDS011;1116;51.502;7.414;2023-02-14T14:22:27;11.13;;;7.23;;
2542;SDS011;1116;51.502;7.414;2023-02-14T14:25:03;6.70;;;6.00;;
2542;SDS011;1116;51.502;7.414;2023-02-14T14:27:39;8.23;;;6.83;;
2542;SDS011;1116;51.502;7.414;2023-02-14T14:30:14;9.50;;;6.53;;
2542;SDS011;1116;51.502;7.414;2023-02-14T14:32:49;7.60;;;5.73;;
2542;SDS011;1116;51.502;7.414;2023-02-14T14:35:20;7.80;;;5.77;;
2542;SDS011;1116;51.502;7.414;2023-02-14T14:37:55;7.50;;;6.00;;
2542;SDS011;1116;51.502;7.414;2023-02-14T14:40:28;8.27;;;6.00;;
2542;SDS011;1116;51.502;7.414;2023-02-14T14:43:00;9.67;;;6.00;;
2542;SDS011;1116;51.502;7.414;2023-02-14T14:45:36;7.17;;;5.30;;
2542;SDS011;1116;51.502;7.414;2023-02-14T14:48:09;6.00;;;5.03;;
2542;SDS011;1116;51.502;7.414;2023-02-14T14:50:43;7.57;;;5.73;;
2542;SDS011;1116;51.502;7.414;2023-02-14T14:53:21;8.53;;;6.07;;
2542;SDS011;1116;51.502;7.414;2023-02-14T14:55:54;9.33;;;5.90;;
2542;SDS011;1116;51.502;7.414;2023-02-14T14:58:33;7.80;;;5.93;;
2542;SDS011;1116;51.502;7.414;2023-02-14T15:01:10;10.00;;;5.80;;
2542;SDS011;1116;51.502;7.414;2023-02-14T15:03:47;7.37;;;5.37;;
2542;SDS011;1116;51.502;7.414;2023-02-14T15:06:19;7.67;;;5.20;;
2542;SDS011;1116;51.502;7.414;2023-02-14T15:08:58;9.73;;;5.40;;
2542;SDS011;1116;51.502;7.414;2023-02-14T15:11:43;7.07;;;5.07;;
2542;SDS011;1116;51.502;7.414;2023-02-14T15:14:31;10.17;;;6.07;;
2542;SDS011;1116;51.502;7.414;2023-02-14T15:17:11;15.37;;;7.43;;
2542;SDS011;1116;51.502;7.414;2023-02-14T15:19:53;9.70;;;6.90;;
2542;SDS011;1116;51.502;7.414;2023-02-14T15:22:27;9.07;;;7.43;;
2542;SDS011;1116;51.502;7.414;2023-02-14T15:25:04;11.83;;;7.10;;
2542;SDS011;1116;51.502;7.414;2023-02-14T15:27:39;12.00;;;7.13;;
2542;SDS011;1116;51.502;7.414;2023-02-14T15:32:55;8.63;;;6.83;;
2542;SDS011;1116;51.502;7.414;2023-02-14T15:35:30;9.10;;;7.20;;
2542;SDS011;1116;51.502;7.414;2023-02-14T15:38:03;10.17;;;6.67;;
2542;SDS011;1116;51.502;7.414;2023-02-14T15:40:39;12.30;;;6.80;;
2542;SDS011;1116;51.502;7.414;2023-02-14T15:43:23;9.97;;;6.27;;
2542;SDS011;1116;51.502;7.414;2023-02-14T15:45:58;10.10;;;6.83;;
2542;SDS011;1116;51.502;7.414;2023-02-14T15:48:41;10.00;;;6.97;;
2542;SDS011;1116;51.502;7.414;2023-02-14T15:51:15;8.80;;;7.73;;
2542;SDS011;1116;51.502;7.414;2023-02-14T15:53:49;11.70;;;7.50;;
2542;SDS011;1116;51.502;7.414;2023-02-14T15:56:25;9.73;;;7.50;;
2542;SDS011;1116;51.502;7.414;2023-02-14T15:59:01;10.23;;;7.13;;
2542;SDS011;1116;51.502;7.414;2023-02-14T16:01:37;9.67;;;7.73;;
2542;SDS011;1116;51.502;7.414;2023-02-14T16:04:10;11.20;;;7.67;;
2542;SDS011;1116;51.502;7.414;2023-02-14T16:06:43;9.87;;;7.47;;
2542;SDS011;1116;51.502;7.414;2023-02-14T16:09:23;11.57;;;8.10;;
2542;SDS011;1116;51.502;7.414;2023-02-14T16:11:58;11.77;;;7.97;;
2542;SDS011;1116;51.502;7.414;2023-02-14T16:14:40;14.37;;;10.07;;
2542;SDS011;1116;51.502;7.414;2023-02-14T16:17:13;13.93;;;9.27;;
2542;SDS011;1116;51.502;7.414;2023-02-14T16:20:01;14.70;;;10.67;;
2542;SDS011;1116;51.502;7.414;2023-02-14T16:22:50;11.43;;;9.87;;
2542;SDS011;1116;51.502;7.414;2023-02-14T16:25:22;14.07;;;10.53;;
2542;SDS011;1116;51.502;7.414;2023-02-14T16:27:55;12.80;;;10.67;;
2542;SDS011;1116;51.502;7.414;2023-02-14T16:30:26;12.90;;;10.00;;